Talagante, Chile
Current Conditions -  °F | °C
As of 9:00 AM on Monday 20 Oct 2014 (Local Time) from SCEL Reporting Station
Clear Clear  
Wind Chill: 64°   Ceiling: Unl
Heat Index: 64°   Visibility: 6mi
Dew Point: 41°   Wind: 3mph
Humidity: 42%   Direction: 350°N
Pressure: 30.03"   Gusts: NA
Location:  33.4°S, 70.5°W
Report Text: SCEL 201300Z 35003KT 300V050 CAVOK 18/05 Q1017 NOSIG
Loading
Personal Weather Stations






























Interactive Weather Map
Tropical Storm Tracking
New forecast layout! Learn more

10-Day Weather Forecast

Advertisements
Track Severe Weather on mobile